createdAt,value
2023-03-21T00:03:49.245Z,22.9
2023-03-21T00:10:08.819Z,23.1
2023-03-21T00:16:34.578Z,22.8
2023-03-21T00:23:13.196Z,22.6
2023-03-21T00:29:46.895Z,22.8
2023-03-21T00:36:56.539Z,23.3
2023-03-21T00:43:21.441Z,22.9
2023-03-21T00:49:38.083Z,22.7
2023-03-21T00:55:47.257Z,22.8
2023-03-21T01:01:37.192Z,23.4
2023-03-21T01:07:28.066Z,23.1
2023-03-21T01:13:22.474Z,22.9
2023-03-21T01:20:07.149Z,22.6
2023-03-21T01:25:38.758Z,23.1
2023-03-21T01:31:47.948Z,23.4
2023-03-21T01:37:49.235Z,23.1
2023-03-21T01:43:22.992Z,22.9
2023-03-21T01:49:23.308Z,22.7
2023-03-21T01:55:21.643Z,23.3
2023-03-21T02:00:53.462Z,23.4
2023-03-21T02:06:49.661Z,23.1
2023-03-21T02:12:37.288Z,22.9
2023-03-21T02:18:27.172Z,22.8
2023-03-21T02:23:52.884Z,23.3
2023-03-21T02:30:08.752Z,23.4
2023-03-21T02:36:47.163Z,23.1
2023-03-21T02:43:20.715Z,22.9
2023-03-21T02:49:56.755Z,22.8
2023-03-21T02:56:27.597Z,23.4
2023-03-21T03:02:14.041Z,23.3
2023-03-21T03:08:14.270Z,23
2023-03-21T03:14:21.340Z,22.9
2023-03-21T03:20:32.989Z,22.9
2023-03-21T03:26:32.500Z,23.5
2023-03-21T03:32:31.849Z,23.3
2023-03-21T03:38:27.974Z,23
2023-03-21T03:44:39.958Z,22.9
2023-03-21T03:50:43.026Z,22.9
2023-03-21T03:56:53.100Z,23.5
2023-03-21T04:02:59.929Z,23.3
2023-03-21T04:09:22.045Z,23
2023-03-21T04:15:26.258Z,22.9
2023-03-21T04:21:10.951Z,22.9
2023-03-21T04:27:18.856Z,23.6
2023-03-21T04:33:38.089Z,23.3
2023-03-21T04:39:31.008Z,23.1
2023-03-21T04:45:22.779Z,22.9
2023-03-21T04:51:14.781Z,22.9
2023-03-21T04:57:07.941Z,23.4
2023-03-21T05:02:59.740Z,23.3
2023-03-21T05:08:53.151Z,23
2023-03-21T05:14:49.163Z,22.8
2023-03-21T05:20:40.199Z,22.8
2023-03-21T05:26:33.113Z,23.3
2023-03-21T05:32:26.248Z,23.5
2023-03-21T05:38:03.503Z,23.1
2023-03-21T05:43:57.196Z,23
2023-03-21T05:49:35.806Z,22.8
2023-03-21T05:55:27.221Z,23
2023-03-21T06:01:20.059Z,23.4
2023-03-21T06:07:13.309Z,23.1
2023-03-21T06:13:04.745Z,22.9
2023-03-21T06:18:58.337Z,22.8
2023-03-21T06:24:35.571Z,22.9
2023-03-21T06:29:56.311Z,23.5
2023-03-21T06:35:49.648Z,23.2
2023-03-21T06:41:42.348Z,22.9
2023-03-21T06:47:34.984Z,22.8
2023-03-21T06:53:13.290Z,22.9
2023-03-21T06:58:50.958Z,23.4
2023-03-21T07:04:30.080Z,23.2
2023-03-21T07:10:23.182Z,22.9
2023-03-21T07:16:00.623Z,22.8
2023-03-21T07:21:53.587Z,22.9
2023-03-21T07:27:52.533Z,23.4
2023-03-21T07:33:14.477Z,23.2
2023-03-21T07:39:06.418Z,22.9
2023-03-21T07:44:45.238Z,22.8
2023-03-21T07:50:41.320Z,22.9
2023-03-21T07:56:34.160Z,23.4
2023-03-21T08:02:26.879Z,23.2
2023-03-21T08:08:21.959Z,22.9
2023-03-21T08:14:17.435Z,22.8
2023-03-21T08:20:09.726Z,23
2023-03-21T08:26:02.670Z,23.5
2023-03-21T08:31:40.474Z,23.2
2023-03-21T08:37:36.863Z,22.9
2023-03-21T08:43:31.572Z,22.8
2023-03-21T08:49:08.766Z,23.1
2023-03-21T08:55:02.792Z,23.4
2023-03-21T09:00:56.639Z,23.1
2023-03-21T09:06:50.474Z,22.9
2023-03-21T09:13:04.406Z,22.8
2023-03-21T09:18:44.599Z,23.3
2023-03-21T09:24:38.326Z,23.4
2023-03-21T09:30:15.953Z,23.1
2023-03-21T09:36:09.091Z,22.9
2023-03-21T09:42:01.599Z,22.8
2023-03-21T09:47:55.054Z,23.3
2023-03-21T09:54:06.213Z,23.5
2023-03-21T09:59:59.539Z,23.2
2023-03-21T10:05:53.916Z,22.9
2023-03-21T10:11:47.527Z,22.9
2023-03-21T10:17:43.448Z,23.3
2023-03-21T10:24:02.706Z,23.6
2023-03-21T10:30:12.884Z,23.2
2023-03-21T10:36:07.382Z,23
2023-03-21T10:41:45.850Z,22.9
2023-03-21T10:47:43.683Z,23.5
2023-03-21T10:53:59.578Z,23.4
2023-03-21T10:59:37.178Z,23.2
2023-03-21T11:05:15.651Z,23
2023-03-21T11:11:18.793Z,23
2023-03-21T11:17:13.654Z,23.6
2023-03-21T11:22:52.505Z,23.4
2023-03-21T11:28:45.420Z,23.1
2023-03-21T11:34:38.095Z,23
2023-03-21T11:40:31.789Z,23.1
2023-03-21T11:46:25.686Z,23.6
2023-03-21T11:52:08.166Z,23.4
2023-03-21T11:58:12.008Z,23.2
2023-03-21T12:04:20.391Z,23
2023-03-21T12:10:13.631Z,23.1
2023-03-21T12:16:15.295Z,23.6
2023-03-21T12:22:08.988Z,23.3
2023-03-21T12:28:03.576Z,23.1
2023-03-21T12:34:09.701Z,22.8
2023-03-21T12:40:04.605Z,22.7
2023-03-21T12:46:19.232Z,22.5
2023-03-21T12:51:58.219Z,22.4
2023-03-21T12:57:20.808Z,22.3
2023-03-21T13:03:10.397Z,22.3
2023-03-21T13:09:19.663Z,22.1
2023-03-21T13:14:59.939Z,22.1
2023-03-21T13:21:00.495Z,22
2023-03-21T13:26:54.753Z,21.9
2023-03-21T13:32:42.187Z,21.8
2023-03-21T13:38:34.797Z,21.8
2023-03-21T13:44:33.189Z,21.6
2023-03-21T13:50:47.611Z,21.6
2023-03-21T13:56:40.715Z,21.5
2023-03-21T14:02:37.764Z,21.4
2023-03-21T14:08:54.175Z,21.4
2023-03-21T14:15:04.136Z,21.3
2023-03-21T14:21:25.743Z,21.3
2023-03-21T14:27:26.706Z,21.2
2023-03-21T14:39:10.643Z,21.1
2023-03-21T14:45:11.804Z,21
2023-03-21T14:51:05.321Z,20.9
2023-03-21T14:56:43.134Z,20.9
2023-03-21T15:02:21.096Z,20.9
2023-03-21T15:08:15.239Z,20.8
2023-03-21T15:14:06.491Z,20.8
2023-03-21T15:19:59.841Z,20.8
2023-03-21T15:25:54.127Z,20.8
2023-03-21T15:31:48.108Z,20.7
2023-03-21T15:37:09.881Z,20.7
2023-03-21T15:42:48.225Z,20.6
2023-03-21T15:48:29.103Z,20.6
2023-03-21T15:54:08.413Z,20.6
2023-03-21T15:59:16.104Z,20.6
2023-03-21T16:05:10.449Z,20.5
2023-03-21T16:11:02.724Z,20.5
2023-03-21T16:16:55.372Z,20.5
2023-03-21T16:22:48.697Z,20.4
2023-03-21T16:28:40.683Z,20.4
2023-03-21T16:34:34.385Z,20.4
2023-03-21T16:40:12.017Z,20.4
2023-03-21T16:45:49.738Z,20.3
2023-03-21T16:51:27.630Z,20.3
2023-03-21T16:57:05.197Z,20.3
2023-03-21T17:02:59.497Z,20.6
2023-03-21T17:14:31.762Z,22
2023-03-21T17:20:25.207Z,22.7
2023-03-21T17:26:04.911Z,23.3
2023-03-21T17:31:58.460Z,24.1
2023-03-21T17:37:51.049Z,24.6
2023-03-21T17:43:43.175Z,24.9
2023-03-21T17:49:22.005Z,25.3
2023-03-21T17:54:31.289Z,25.5
2023-03-21T18:00:24.173Z,25.6
2023-03-21T18:06:20.380Z,25.8
2023-03-21T18:12:56.922Z,26.1
2023-03-21T18:18:43.252Z,26.3
2023-03-21T18:25:03.485Z,26.5
2023-03-21T18:33:26.868Z,26.9
2023-03-21T18:39:27.194Z,27.3
2023-03-21T18:46:34.239Z,27.5
2023-03-21T18:53:17.305Z,27.7
2023-03-21T19:00:26.686Z,27.9
2023-03-21T19:06:51.022Z,28.1
2023-03-21T19:13:18.125Z,28.3
2023-03-21T19:20:49.020Z,28.4
2023-03-21T19:27:19.054Z,28.6
2023-03-21T19:33:35.733Z,28.7
2023-03-21T19:39:53.362Z,28.8
2023-03-21T19:46:08.506Z,28.8
2023-03-21T19:53:26.523Z,28.8
2023-03-21T19:59:32.165Z,28.8
2023-03-21T20:05:52.747Z,28.8
2023-03-21T20:12:36.544Z,28.8
2023-03-21T20:18:46.198Z,28.6
2023-03-21T20:25:18.793Z,28.6
2023-03-21T20:32:36.277Z,28.4
2023-03-21T20:39:44.890Z,28.3
2023-03-21T20:47:00.559Z,28.2
2023-03-21T20:54:14.317Z,28
2023-03-21T21:00:55.642Z,27.9
2023-03-21T21:13:53.901Z,27.8
2023-03-21T21:20:17.049Z,27.6
2023-03-21T21:26:19.356Z,27.6
2023-03-21T21:32:13.004Z,27.4
2023-03-21T21:38:05.891Z,27.3
2023-03-21T21:43:57.909Z,27.1
2023-03-21T21:49:36.206Z,27
2023-03-21T21:55:13.538Z,26.9
2023-03-21T22:01:06.830Z,26.6
2023-03-21T22:06:43.836Z,25.9
2023-03-21T22:12:24.534Z,25.6
2023-03-21T22:18:02.493Z,25.2
2023-03-21T22:23:43.240Z,24.8
2023-03-21T22:29:37.566Z,24.5
2023-03-21T22:35:22.812Z,24.1
2023-03-21T22:41:15.664Z,24.3
2023-03-21T22:46:52.359Z,25.1
2023-03-21T22:52:44.311Z,25.3
2023-03-21T22:58:37.385Z,24.8
2023-03-21T23:04:15.579Z,24.4
2023-03-21T23:09:53.298Z,24
2023-03-21T23:15:46.742Z,23.8
2023-03-21T23:21:23.495Z,23.6
2023-03-21T23:27:19.632Z,23.4
2023-03-21T23:32:56.993Z,23.8
2023-03-21T23:38:50.521Z,24.4
2023-03-21T23:44:41.774Z,24.6
2023-03-21T23:50:35.092Z,24.2
2023-03-21T23:56:29.055Z,24
